createdAt,value
2023-02-16T00:01:27.723Z,93.00
2023-02-16T00:06:22.415Z,89.75
2023-02-16T00:08:50.693Z,93.05
2023-02-16T00:11:58.454Z,88.00
2023-02-16T00:14:27.073Z,90.32
2023-02-16T00:16:55.121Z,86.82
2023-02-16T00:19:42.553Z,86.32
2023-02-16T00:22:11.449Z,88.30
2023-02-16T00:24:38.713Z,91.50
2023-02-16T00:27:13.578Z,88.25
2023-02-16T00:29:40.751Z,92.63
2023-02-16T00:32:09.251Z,88.82
2023-02-16T00:34:37.765Z,85.57
2023-02-16T00:37:09.401Z,93.90
2023-02-16T00:39:37.323Z,86.80
2023-02-16T00:42:11.803Z,83.07
2023-02-16T00:44:43.882Z,80.47
2023-02-16T00:47:20.346Z,81.03
2023-02-16T00:49:54.860Z,91.82
2023-02-16T00:52:34.292Z,80.75
2023-02-16T00:55:04.007Z,82.32
2023-02-16T00:57:32.882Z,84.88
2023-02-16T01:00:15.655Z,84.75
2023-02-16T01:02:44.258Z,86.18
2023-02-16T01:05:11.768Z,86.15
2023-02-16T01:07:57.790Z,83.72
2023-02-16T01:10:44.042Z,83.35
2023-02-16T01:13:11.768Z,83.55
2023-02-16T01:15:41.833Z,88.90
2023-02-16T01:18:09.516Z,84.90
2023-02-16T01:20:36.728Z,86.75
2023-02-16T01:23:04.488Z,85.40
2023-02-16T01:25:31.750Z,85.35
2023-02-16T01:27:59.937Z,86.53
2023-02-16T01:30:27.766Z,90.70
2023-02-16T01:32:59.482Z,106.50
2023-02-16T01:35:30.567Z,95.75
2023-02-16T01:37:59.107Z,97.28
2023-02-16T01:40:31.485Z,92.93
2023-02-16T01:43:02.887Z,91.90
2023-02-16T01:45:36.573Z,95.82
2023-02-16T01:48:07.836Z,90.00
2023-02-16T01:50:48.931Z,88.72
2023-02-16T01:53:27.449Z,87.50
2023-02-16T01:55:57.683Z,89.63
2023-02-16T01:58:24.880Z,85.05
2023-02-16T02:00:52.251Z,87.90
2023-02-16T02:03:40.069Z,86.75
2023-02-16T02:06:15.330Z,87.57
2023-02-16T02:09:03.102Z,85.10
2023-02-16T02:11:45.226Z,92.55
2023-02-16T02:14:17.638Z,93.68
2023-02-16T02:16:58.637Z,95.32
2023-02-16T02:19:26.749Z,89.35
2023-02-16T02:22:51.425Z,90.63
2023-02-16T02:25:31.217Z,85.45
2023-02-16T02:28:01.535Z,92.30
2023-02-16T02:30:49.089Z,92.68
2023-02-16T02:33:35.116Z,91.22
2023-02-16T02:36:16.769Z,89.70
2023-02-16T02:38:51.606Z,86.15
2023-02-16T02:41:44.387Z,85.80
2023-02-16T02:44:12.832Z,82.75
2023-02-16T02:46:40.545Z,81.60
2023-02-16T02:49:07.848Z,82.32
2023-02-16T02:51:40.401Z,78.30
2023-02-16T02:54:46.400Z,78.43
2023-02-16T02:57:38.279Z,76.20
2023-02-16T03:00:27.287Z,77.43
2023-02-16T03:02:58.854Z,75.05
2023-02-16T03:05:30.824Z,78.70
2023-02-16T03:08:06.552Z,82.75
2023-02-16T03:10:55.973Z,78.57
2023-02-16T03:13:25.869Z,77.53
2023-02-16T03:15:55.994Z,73.90
2023-02-16T03:18:43.826Z,76.00
2023-02-16T03:21:30.938Z,74.25
2023-02-16T03:24:17.537Z,75.85
2023-02-16T03:27:03.505Z,80.90
2023-02-16T03:29:31.207Z,80.28
2023-02-16T03:31:58.870Z,78.07
2023-02-16T03:34:26.645Z,76.80
2023-02-16T03:36:59.290Z,76.55
2023-02-16T03:39:27.705Z,74.50
2023-02-16T03:41:55.834Z,78.55
2023-02-16T03:44:23.019Z,77.35
2023-02-16T03:46:50.544Z,81.05
2023-02-16T03:49:18.839Z,76.80
2023-02-16T03:51:46.036Z,79.68
2023-02-16T03:54:13.449Z,74.28
2023-02-16T03:56:40.704Z,77.72
2023-02-16T03:59:08.158Z,76.35
2023-02-16T04:01:35.301Z,72.07
2023-02-16T04:04:02.524Z,74.93
2023-02-16T04:06:29.735Z,75.93
2023-02-16T04:08:58.707Z,76.70
2023-02-16T04:11:44.554Z,77.40
2023-02-16T04:14:11.744Z,74.82
2023-02-16T04:16:40.773Z,77.85
2023-02-16T04:19:08.070Z,76.90
2023-02-16T04:21:35.484Z,76.80
2023-02-16T04:24:04.295Z,81.18
2023-02-16T04:26:31.450Z,76.90
2023-02-16T04:28:58.815Z,76.90
2023-02-16T04:31:26.186Z,78.80
2023-02-16T04:33:53.610Z,80.20
2023-02-16T04:36:20.980Z,77.25
2023-02-16T04:38:48.430Z,79.75
2023-02-16T04:41:15.629Z,79.75
2023-02-16T04:43:43.029Z,79.03
2023-02-16T04:46:10.253Z,77.68
2023-02-16T04:48:39.579Z,78.85
2023-02-16T04:51:07.873Z,77.13
2023-02-16T04:53:35.284Z,78.32
2023-02-16T04:56:02.443Z,81.47
2023-02-16T04:58:30.717Z,78.28
2023-02-16T05:01:01.244Z,78.95
2023-02-16T05:03:28.436Z,74.35
2023-02-16T05:05:55.659Z,78.35
2023-02-16T05:08:24.513Z,80.03
2023-02-16T05:11:11.697Z,80.97
2023-02-16T05:13:57.817Z,79.22
2023-02-16T05:16:25.553Z,77.85
2023-02-16T05:18:55.075Z,79.15
2023-02-16T05:21:32.238Z,80.57
2023-02-16T05:24:00.789Z,75.95
2023-02-16T05:26:28.381Z,73.32
2023-02-16T05:28:56.188Z,72.72
2023-02-16T05:31:24.289Z,74.88
2023-02-16T05:33:51.736Z,71.88
2023-02-16T05:36:19.182Z,67.82
2023-02-16T05:38:46.373Z,70.43
2023-02-16T05:41:23.524Z,72.40
2023-02-16T05:43:55.227Z,72.95
2023-02-16T05:46:26.387Z,67.82
2023-02-16T05:48:55.382Z,67.75
2023-02-16T05:51:22.642Z,65.55
2023-02-16T05:53:49.791Z,69.95
2023-02-16T05:56:17.897Z,66.78
2023-02-16T05:58:45.273Z,73.32
2023-02-16T06:01:12.797Z,75.32
2023-02-16T06:03:40.112Z,69.25
2023-02-16T06:06:07.886Z,70.60
2023-02-16T06:08:35.298Z,68.93
2023-02-16T06:11:03.007Z,67.10
2023-02-16T06:13:30.796Z,65.82
2023-02-16T06:15:59.982Z,65.97
2023-02-16T06:18:27.478Z,66.78
2023-02-16T06:20:57.957Z,64.82
2023-02-16T06:23:25.230Z,62.03
2023-02-16T06:25:52.438Z,61.35
2023-02-16T06:28:22.242Z,64.70
2023-02-16T06:30:50.341Z,64.57
2023-02-16T06:33:17.534Z,63.88
2023-02-16T06:35:45.148Z,64.28
2023-02-16T06:38:12.448Z,62.90
2023-02-16T06:40:39.701Z,59.20
2023-02-16T06:43:07.172Z,61.88
2023-02-16T06:45:34.492Z,66.82
2023-02-16T06:48:03.020Z,67.63
2023-02-16T06:50:32.783Z,66.72
2023-02-16T06:52:59.980Z,67.72
2023-02-16T06:55:27.349Z,68.75
2023-02-16T06:57:54.720Z,66.05
2023-02-16T07:00:22.836Z,69.57
2023-02-16T07:02:50.119Z,66.28
2023-02-16T07:05:17.679Z,65.32
2023-02-16T07:07:45.404Z,63.67
2023-02-16T07:10:12.727Z,68.93
2023-02-16T07:12:40.482Z,72.03
2023-02-16T07:15:08.529Z,68.57
2023-02-16T07:17:35.826Z,70.63
2023-02-16T07:20:06.944Z,64.43
2023-02-16T07:22:34.137Z,71.45
2023-02-16T07:25:01.540Z,71.63
2023-02-16T07:27:29.556Z,68.28
2023-02-16T07:29:57.134Z,67.07
2023-02-16T07:32:24.680Z,71.53
2023-02-16T07:34:51.931Z,72.20
2023-02-16T07:37:22.258Z,69.68
2023-02-16T07:39:49.505Z,74.50
2023-02-16T07:42:16.710Z,74.97
2023-02-16T07:44:44.424Z,75.63
2023-02-16T07:47:13.586Z,80.20
2023-02-16T07:49:41.643Z,83.97
2023-02-16T07:52:10.660Z,87.90
2023-02-16T07:54:38.288Z,88.03
2023-02-16T07:57:06.773Z,86.55
2023-02-16T07:59:34.141Z,88.47
2023-02-16T08:02:01.408Z,77.88
2023-02-16T08:04:31.297Z,74.28
2023-02-16T08:06:59.137Z,72.40
2023-02-16T08:09:26.344Z,77.45
2023-02-16T08:11:53.492Z,68.07
2023-02-16T08:14:20.647Z,72.75
2023-02-16T08:16:49.544Z,52.13
2023-02-16T08:19:19.453Z,43.30
2023-02-16T08:21:49.696Z,39.78
2023-02-16T08:24:17.018Z,40.40
2023-02-16T08:26:45.342Z,40.03
2023-02-16T08:29:15.762Z,39.05
2023-02-16T08:31:43.411Z,42.88
2023-02-16T08:34:10.905Z,40.55
2023-02-16T08:36:40.268Z,38.72
2023-02-16T08:39:21.458Z,36.03
2023-02-16T08:41:50.124Z,36.50
2023-02-16T08:44:18.939Z,37.15
2023-02-16T08:46:47.659Z,34.78
2023-02-16T08:49:17.062Z,36.47
2023-02-16T08:51:53.360Z,37.05
2023-02-16T08:54:22.229Z,38.20
2023-02-16T08:56:49.866Z,35.95
2023-02-16T08:59:20.099Z,37.78
2023-02-16T09:01:47.589Z,35.15
2023-02-16T09:04:15.213Z,34.13
2023-02-16T09:06:44.414Z,35.80
2023-02-16T09:09:13.582Z,35.97
2023-02-16T09:11:41.138Z,35.20
2023-02-16T09:14:09.418Z,33.38
2023-02-16T09:16:39.559Z,33.53
2023-02-16T09:19:07.243Z,34.75
2023-02-16T09:21:34.488Z,37.17
2023-02-16T09:24:05.453Z,32.08
2023-02-16T09:29:00.227Z,30.85
2023-02-16T09:31:30.544Z,33.67
2023-02-16T09:34:02.587Z,32.42
2023-02-16T09:36:32.136Z,32.08
2023-02-16T09:38:59.645Z,31.17
2023-02-16T09:41:30.840Z,29.17
2023-02-16T09:44:08.049Z,31.88
2023-02-16T09:46:37.048Z,30.92
2023-02-16T09:49:04.791Z,31.20
2023-02-16T09:51:37.702Z,29.00
2023-02-16T09:54:14.345Z,29.30
2023-02-16T09:56:45.968Z,30.05
2023-02-16T09:59:19.645Z,30.08
2023-02-16T10:01:56.543Z,28.98
2023-02-16T10:04:45.772Z,28.88
2023-02-16T10:07:23.582Z,27.30
2023-02-16T10:09:53.517Z,27.08
2023-02-16T10:12:26.367Z,26.70
2023-02-16T10:14:57.237Z,23.20
2023-02-16T10:17:31.378Z,29.42
2023-02-16T10:20:17.252Z,24.98
2023-02-16T10:23:03.611Z,26.90
2023-02-16T10:26:03.254Z,25.08
2023-02-16T10:28:30.371Z,25.40
2023-02-16T10:31:06.125Z,25.27
2023-02-16T10:33:43.920Z,26.15
2023-02-16T10:36:16.617Z,25.17
2023-02-16T10:38:54.805Z,24.88
2023-02-16T10:41:28.155Z,25.92
2023-02-16T10:44:04.445Z,27.30
2023-02-16T10:46:52.124Z,27.50
2023-02-16T10:49:19.558Z,29.05
2023-02-16T10:51:49.393Z,27.17
2023-02-16T10:54:23.189Z,27.15
2023-02-16T10:56:54.176Z,29.95
2023-02-16T10:59:26.408Z,26.15
2023-02-16T11:01:57.875Z,25.45
2023-02-16T11:04:32.398Z,25.48
2023-02-16T11:07:20.065Z,23.52
2023-02-16T11:09:51.148Z,23.27
2023-02-16T11:12:18.384Z,25.30
2023-02-16T11:14:50.431Z,22.33
2023-02-16T11:17:18.704Z,23.88
2023-02-16T11:20:09.402Z,24.63
2023-02-16T11:22:38.237Z,22.92
2023-02-16T11:25:24.084Z,24.05
2023-02-16T11:27:54.024Z,23.50
2023-02-16T11:30:29.462Z,25.95
2023-02-16T11:32:56.986Z,22.77
2023-02-16T11:35:25.441Z,26.25
2023-02-16T11:37:52.714Z,26.88
2023-02-16T11:40:22.812Z,23.85
2023-02-16T11:42:54.359Z,22.77
2023-02-16T11:45:26.489Z,21.88
2023-02-16T11:48:05.244Z,19.90
2023-02-16T11:50:34.208Z,23.70
2023-02-16T11:53:11.618Z,24.10
2023-02-16T11:55:43.594Z,24.27
2023-02-16T11:58:16.586Z,23.20
2023-02-16T12:00:51.239Z,21.23
2023-02-16T12:03:37.143Z,21.98
2023-02-16T12:06:04.411Z,22.13
2023-02-16T12:08:50.085Z,20.00
2023-02-16T12:11:25.476Z,20.45
2023-02-16T12:14:12.862Z,21.67
2023-02-16T12:16:58.843Z,21.77
2023-02-16T12:19:32.009Z,20.52
2023-02-16T12:22:16.732Z,21.98
2023-02-16T12:24:51.105Z,21.00
2023-02-16T12:27:34.320Z,21.27
2023-02-16T12:30:01.468Z,19.35
2023-02-16T12:32:37.688Z,19.63
2023-02-16T12:35:10.565Z,21.23
2023-02-16T12:37:42.839Z,20.80
2023-02-16T12:40:28.729Z,20.50
2023-02-16T12:43:04.128Z,19.48
2023-02-16T12:45:37.411Z,19.60
2023-02-16T12:48:23.502Z,19.50
2023-02-16T12:50:52.706Z,19.38
2023-02-16T12:53:30.145Z,22.48
2023-02-16T12:56:03.987Z,20.90
2023-02-16T12:58:37.104Z,20.67
2023-02-16T13:01:16.006Z,20.23
2023-02-16T13:03:46.781Z,21.83
2023-02-16T13:06:24.254Z,20.52
2023-02-16T13:09:03.632Z,20.20
2023-02-16T13:11:36.798Z,19.58
2023-02-16T13:14:05.409Z,19.63
2023-02-16T13:16:47.376Z,18.95
2023-02-16T13:19:15.407Z,22.05
2023-02-16T13:21:54.555Z,20.45
2023-02-16T13:24:34.582Z,20.42
2023-02-16T13:27:16.153Z,20.70
2023-02-16T13:30:00.425Z,20.67
2023-02-16T13:32:30.822Z,21.55
2023-02-16T13:35:20.832Z,21.77
2023-02-16T13:38:14.834Z,21.10
2023-02-16T13:40:44.958Z,20.27
2023-02-16T13:43:30.195Z,19.95
2023-02-16T13:45:57.787Z,21.20
2023-02-16T13:48:26.721Z,21.05
2023-02-16T13:51:14.057Z,20.17
2023-02-16T13:53:43.300Z,21.35
2023-02-16T13:56:22.597Z,19.60
2023-02-16T13:58:51.303Z,19.25
2023-02-16T14:01:34.585Z,19.88
2023-02-16T14:04:05.027Z,21.38
2023-02-16T14:06:34.174Z,21.08
2023-02-16T14:09:13.244Z,20.50
2023-02-16T14:11:56.104Z,22.55
2023-02-16T14:14:41.718Z,20.58
2023-02-16T14:17:38.320Z,21.52
2023-02-16T14:20:16.003Z,21.90
2023-02-16T14:22:52.767Z,20.58
2023-02-16T14:25:22.753Z,20.35
2023-02-16T14:27:54.189Z,21.00
2023-02-16T14:30:26.228Z,20.92
2023-02-16T14:33:11.681Z,21.48
2023-02-16T14:35:40.508Z,42.88
2023-02-16T14:38:19.394Z,33.15
2023-02-16T14:40:52.806Z,21.00
2023-02-16T14:43:33.080Z,20.65
2023-02-16T14:46:09.064Z,18.58
2023-02-16T14:48:48.521Z,19.48
2023-02-16T14:51:23.971Z,50.42
2023-02-16T14:54:09.497Z,58.17
2023-02-16T14:56:47.207Z,19.98
2023-02-16T14:59:14.280Z,19.98
2023-02-16T15:01:42.796Z,19.90
2023-02-16T15:04:11.333Z,27.08
2023-02-16T15:06:49.354Z,19.75
2023-02-16T15:09:25.930Z,19.35
2023-02-16T15:12:12.177Z,20.85
2023-02-16T15:14:45.151Z,19.58
2023-02-16T15:17:19.643Z,19.00
2023-02-16T15:19:48.099Z,19.83
2023-02-16T15:22:18.707Z,19.70
2023-02-16T15:24:54.949Z,19.50
2023-02-16T15:27:23.441Z,20.83
2023-02-16T15:30:23.078Z,20.95
2023-02-16T15:32:52.706Z,19.10
2023-02-16T15:35:24.629Z,21.27
2023-02-16T15:38:00.294Z,19.42
2023-02-16T15:40:29.991Z,19.52
2023-02-16T15:43:00.962Z,20.63
2023-02-16T15:45:29.423Z,21.00
2023-02-16T15:48:15.316Z,20.67
2023-02-16T15:50:43.290Z,22.17
2023-02-16T15:53:15.768Z,22.55
2023-02-16T15:55:44.536Z,22.15
2023-02-16T15:58:13.686Z,20.85
2023-02-16T16:00:42.468Z,23.95
2023-02-16T16:03:09.994Z,24.30
2023-02-16T16:05:39.726Z,23.02
2023-02-16T16:08:07.868Z,22.13
2023-02-16T16:10:37.313Z,23.70
2023-02-16T16:13:09.176Z,27.38
2023-02-16T16:15:39.791Z,26.95
2023-02-16T16:20:39.720Z,27.58
2023-02-16T16:23:22.315Z,28.77
2023-02-16T16:25:50.716Z,30.15
2023-02-16T16:28:27.176Z,31.52
2023-02-16T16:31:28.039Z,32.05
2023-02-16T16:33:59.750Z,30.85
2023-02-16T16:36:36.718Z,32.22
2023-02-16T16:39:11.257Z,32.75
2023-02-16T16:41:40.306Z,31.65
2023-02-16T16:44:11.108Z,32.22
2023-02-16T16:46:38.352Z,32.15
2023-02-16T16:49:06.623Z,30.60
2023-02-16T16:51:35.013Z,32.92
2023-02-16T16:54:06.166Z,31.83
2023-02-16T16:56:42.444Z,34.75
2023-02-16T16:59:09.628Z,34.00
2023-02-16T17:01:36.822Z,41.67
2023-02-16T17:04:03.983Z,34.67
2023-02-16T17:06:31.260Z,35.08
2023-02-16T17:08:58.343Z,35.80
2023-02-16T17:11:32.049Z,35.58
2023-02-16T17:14:04.876Z,38.03
2023-02-16T17:16:33.653Z,37.33
2023-02-16T17:19:00.794Z,40.58
2023-02-16T17:21:27.940Z,39.35
2023-02-16T17:23:55.046Z,39.95
2023-02-16T17:26:24.977Z,39.10
2023-02-16T17:28:52.111Z,38.00
2023-02-16T17:31:19.386Z,39.22
2023-02-16T17:33:46.704Z,39.55
2023-02-16T17:36:15.161Z,39.10
2023-02-16T17:38:42.564Z,39.25
2023-02-16T17:41:17.299Z,40.22
2023-02-16T17:43:44.532Z,37.92
2023-02-16T17:46:11.840Z,40.28
2023-02-16T17:48:39.056Z,38.05
2023-02-16T17:51:06.883Z,37.08
2023-02-16T17:53:34.425Z,37.25
2023-02-16T17:56:01.543Z,39.08
2023-02-16T17:58:28.666Z,40.65
2023-02-16T18:00:55.932Z,44.60
2023-02-16T18:03:24.987Z,40.35
2023-02-16T18:05:52.425Z,39.17
2023-02-16T18:08:19.563Z,35.72
2023-02-16T18:10:51.068Z,37.67
2023-02-16T18:13:19.042Z,36.05
2023-02-16T18:15:47.688Z,33.25
2023-02-16T18:18:16.021Z,35.25
2023-02-16T18:20:45.785Z,39.35
2023-02-16T18:23:13.109Z,33.70
2023-02-16T18:25:41.439Z,38.38
2023-02-16T18:28:08.554Z,31.10
2023-02-16T18:30:35.736Z,42.25
2023-02-16T18:33:02.956Z,38.65
2023-02-16T18:35:31.868Z,36.75
2023-02-16T18:37:59.059Z,34.67
2023-02-16T18:40:26.199Z,35.63
2023-02-16T18:42:53.437Z,35.50
2023-02-16T18:45:20.585Z,36.28
2023-02-16T18:47:47.692Z,35.55
2023-02-16T18:50:15.021Z,38.28
2023-02-16T18:52:43.137Z,35.05
2023-02-16T18:55:10.611Z,41.17
2023-02-16T18:57:37.844Z,36.70
2023-02-16T19:00:09.357Z,35.78
2023-02-16T19:02:36.807Z,33.63
2023-02-16T19:05:04.623Z,42.28
2023-02-16T19:07:31.788Z,39.42
2023-02-16T19:09:59.215Z,36.65
2023-02-16T19:12:26.641Z,35.50
2023-02-16T19:14:53.752Z,33.95
2023-02-16T19:17:21.150Z,36.80
2023-02-16T19:19:48.278Z,40.53
2023-02-16T19:22:16.459Z,39.17
2023-02-16T19:24:44.620Z,39.90
2023-02-16T19:27:11.939Z,47.53
2023-02-16T19:29:39.212Z,47.13
2023-02-16T19:32:06.536Z,47.17
2023-02-16T19:34:34.247Z,42.55
2023-02-16T19:37:01.364Z,44.33
2023-02-16T19:39:28.570Z,43.42
2023-02-16T19:41:55.720Z,42.17
2023-02-16T19:44:22.806Z,44.60
2023-02-16T19:46:50.863Z,44.47
2023-02-16T19:49:18.041Z,43.65
2023-02-16T19:51:47.573Z,45.50
2023-02-16T19:54:15.582Z,45.67
2023-02-16T19:56:43.144Z,44.03
2023-02-16T19:59:39.261Z,42.80
2023-02-16T20:02:40.655Z,41.22
2023-02-16T20:05:17.927Z,43.55
2023-02-16T20:07:58.343Z,46.67
2023-02-16T20:10:38.923Z,41.97
2023-02-16T20:13:34.690Z,43.75
2023-02-16T20:16:34.522Z,42.05
2023-02-16T20:19:06.350Z,42.67
2023-02-16T20:21:50.638Z,44.85
2023-02-16T20:25:09.078Z,41.70
2023-02-16T20:33:28.482Z,42.22
2023-02-16T20:36:09.033Z,44.05
2023-02-16T20:38:49.759Z,42.75
2023-02-16T20:41:30.518Z,43.35
2023-02-16T20:47:38.206Z,35.55
2023-02-16T20:50:37.259Z,36.50
2023-02-16T20:53:14.860Z,39.22
2023-02-16T21:02:58.508Z,37.03
2023-02-16T21:05:48.741Z,38.20
2023-02-16T21:08:50.666Z,35.55
2023-02-16T21:17:39.023Z,36.60
2023-02-16T21:20:55.600Z,36.90
2023-02-16T21:24:28.316Z,36.70
2023-02-16T21:27:05.228Z,36.60
2023-02-16T21:29:35.860Z,37.03
2023-02-16T21:35:26.475Z,35.88
2023-02-16T21:41:20.732Z,36.53
2023-02-16T21:43:54.101Z,36.60
2023-02-16T21:46:36.841Z,38.60
2023-02-16T21:52:25.514Z,55.28
2023-02-16T21:55:21.538Z,61.05
2023-02-16T21:58:20.701Z,64.65
2023-02-16T22:01:00.717Z,66.07
2023-02-16T22:03:35.480Z,64.93
2023-02-16T22:06:24.807Z,62.42
2023-02-16T22:15:31.378Z,64.63
2023-02-16T22:17:58.963Z,59.97
2023-02-16T22:20:56.287Z,70.53
2023-02-16T22:26:34.410Z,63.85
2023-02-16T22:29:27.125Z,58.45
2023-02-16T22:32:07.374Z,56.72
2023-02-16T22:34:38.450Z,56.22
2023-02-16T22:37:32.486Z,54.55
2023-02-16T22:40:32.460Z,54.25
2023-02-16T22:46:38.371Z,52.22
2023-02-16T22:49:09.921Z,52.60
2023-02-16T22:52:14.550Z,55.78
2023-02-16T23:01:57.200Z,49.38
2023-02-16T23:05:00.646Z,51.45
2023-02-16T23:07:33.078Z,57.63
2023-02-16T23:10:06.072Z,59.63
2023-02-16T23:12:52.485Z,67.10
2023-02-16T23:15:31.126Z,70.03
2023-02-16T23:18:06.157Z,83.07
2023-02-16T23:20:47.123Z,80.47
2023-02-16T23:26:34.622Z,65.18
2023-02-16T23:29:16.379Z,76.07
2023-02-16T23:35:24.920Z,66.28
2023-02-16T23:38:12.478Z,61.70
2023-02-16T23:41:31.624Z,62.40
2023-02-16T23:44:39.926Z,71.45
2023-02-16T23:47:37.937Z,68.60
2023-02-16T23:50:10.661Z,66.45
2023-02-16T23:52:57.078Z,65.32
2023-02-16T23:55:54.195Z,67.43
2023-02-16T23:59:13.424Z,64.28
